createdAt,value
2023-05-10T00:03:13.065Z,58.91
2023-05-10T00:08:14.722Z,58.28
2023-05-10T00:13:16.757Z,60.19
2023-05-10T00:18:18.395Z,58.59
2023-05-10T00:23:20.272Z,59.46
2023-05-10T00:28:21.951Z,60.66
2023-05-10T00:33:23.633Z,59.05
2023-05-10T00:38:25.596Z,59.42
2023-05-10T00:43:27.315Z,59.44
2023-05-10T00:48:30.394Z,58.71
2023-05-10T00:53:33.429Z,57.95
2023-05-10T00:58:35.142Z,58.69
2023-05-10T01:03:39.023Z,58.11
2023-05-10T01:08:41.137Z,58.37
2023-05-10T01:13:44.587Z,58.54
2023-05-10T01:18:46.667Z,59.38
2023-05-10T01:24:06.791Z,57.23
2023-05-10T01:29:44.653Z,58.72
2023-05-10T01:35:00.813Z,58.37
2023-05-10T01:40:08.229Z,59.71
2023-05-10T01:45:26.701Z,60.51
2023-05-10T01:50:31.093Z,59.30
2023-05-10T01:55:37.141Z,59.40
2023-05-10T02:00:43.962Z,61.01
2023-05-10T02:05:47.865Z,60.36
2023-05-10T02:10:52.554Z,60.41
2023-05-10T02:15:55.376Z,58.99
2023-05-10T02:20:59.040Z,59.90
2023-05-10T02:26:02.925Z,58.77
2023-05-10T02:31:06.241Z,60.21
2023-05-10T02:36:09.990Z,59.20
2023-05-10T02:41:13.165Z,58.06
2023-05-10T02:46:14.853Z,59.43
2023-05-10T02:51:19.235Z,60.43
2023-05-10T02:56:34.272Z,58.70
2023-05-10T03:01:36.131Z,59.40
2023-05-10T03:06:37.826Z,59.28
2023-05-10T03:11:49.957Z,58.46
2023-05-10T03:17:05.293Z,61.50
2023-05-10T03:22:11.617Z,60.45
2023-05-10T03:27:15.905Z,58.52
2023-05-10T03:32:17.535Z,60.23
2023-05-10T03:37:19.121Z,58.72
2023-05-10T03:42:20.817Z,58.90
2023-05-10T03:47:22.474Z,59.99
2023-05-10T03:52:24.037Z,58.61
2023-05-10T03:57:25.705Z,58.13
2023-05-10T04:02:27.465Z,58.89
2023-05-10T04:07:29.509Z,60.99
2023-05-10T04:12:31.065Z,59.22
2023-05-10T04:17:32.677Z,61.18
2023-05-10T04:22:34.214Z,60.08
2023-05-10T04:27:35.786Z,60.74
2023-05-10T04:32:37.461Z,62.01
2023-05-10T04:37:39.053Z,60.24
2023-05-10T04:42:44.898Z,61.81
2023-05-10T04:47:46.492Z,61.88
2023-05-10T04:52:48.087Z,60.99
2023-05-10T04:57:49.764Z,59.30
2023-05-10T05:02:51.406Z,59.55
2023-05-10T05:07:53.141Z,59.67
2023-05-10T05:12:54.767Z,59.12
2023-05-10T05:17:56.419Z,60.13
2023-05-10T05:22:58.083Z,59.92
2023-05-10T05:27:59.694Z,58.40
2023-05-10T05:33:01.348Z,58.37
2023-05-10T05:38:02.915Z,56.63
2023-05-10T05:43:04.595Z,59.02
2023-05-10T05:48:06.343Z,59.21
2023-05-10T05:53:07.921Z,59.76
2023-05-10T05:58:09.455Z,60.23
2023-05-10T06:03:11.595Z,59.46
2023-05-10T06:08:13.230Z,59.06
2023-05-10T06:13:14.880Z,59.33
2023-05-10T06:18:16.454Z,59.82
2023-05-10T06:23:18.164Z,58.54
2023-05-10T06:28:19.731Z,57.73
2023-05-10T06:33:21.294Z,58.54
2023-05-10T06:38:23.030Z,56.06
2023-05-10T06:43:25.855Z,59.66
2023-05-10T06:48:27.429Z,58.63
2023-05-10T06:53:29.036Z,57.11
2023-05-10T06:58:30.613Z,57.29
2023-05-10T07:03:32.878Z,58.06
2023-05-10T07:08:35.334Z,56.34
2023-05-10T07:13:37.478Z,57.88
2023-05-10T07:18:39.122Z,57.93
2023-05-10T07:23:42.074Z,56.74
2023-05-10T07:28:44.515Z,56.29
2023-05-10T07:33:46.831Z,57.91
2023-05-10T07:38:48.441Z,55.28
2023-05-10T07:43:50.038Z,54.95
2023-05-10T07:48:51.660Z,56.11
2023-05-10T07:53:53.375Z,55.62
2023-05-10T07:58:55.379Z,56.68
2023-05-10T08:03:57.041Z,56.42
2023-05-10T08:08:58.714Z,54.66
2023-05-10T08:14:00.313Z,55.81
2023-05-10T08:19:02.085Z,54.77
2023-05-10T08:24:03.805Z,55.25
2023-05-10T08:29:05.794Z,56.34
2023-05-10T08:34:07.471Z,53.61
2023-05-10T08:39:16.253Z,54.92
2023-05-10T08:44:25.069Z,54.54
2023-05-10T08:49:28.714Z,56.00
2023-05-10T08:54:31.995Z,54.45
2023-05-10T08:59:34.176Z,52.91
2023-05-10T09:04:36.226Z,52.07
2023-05-10T11:51:48.359Z,45.92
2023-05-10T11:56:51.099Z,46.24
2023-05-10T12:01:52.863Z,45.90
2023-05-10T12:06:54.701Z,49.08
2023-05-10T12:12:00.538Z,48.04
2023-05-10T12:17:02.125Z,46.47
2023-05-10T12:22:06.380Z,46.91
2023-05-10T12:27:09.705Z,44.37
2023-05-10T12:32:11.595Z,43.67
2023-05-10T12:37:13.449Z,44.30
2023-05-10T12:42:15.006Z,43.45
2023-05-10T12:47:16.598Z,44.22
2023-05-10T12:52:18.173Z,43.61
2023-05-10T12:57:21.241Z,43.82
2023-05-10T13:02:24.105Z,42.99
2023-05-10T13:07:25.708Z,43.49
2023-05-10T13:12:27.360Z,42.66
2023-05-10T13:17:28.919Z,43.13
2023-05-10T13:22:39.603Z,43.99
2023-05-10T13:27:41.971Z,42.42
2023-05-10T13:32:43.585Z,43.06
2023-05-10T13:37:45.206Z,42.75
2023-05-10T13:42:46.987Z,43.61
2023-05-10T13:47:48.560Z,43.26
2023-05-10T13:52:50.181Z,43.68
2023-05-10T13:57:51.753Z,43.25
2023-05-10T14:02:53.420Z,43.21
2023-05-10T14:07:55.097Z,43.30
2023-05-10T14:12:59.737Z,42.85
2023-05-10T14:18:01.572Z,43.82
2023-05-10T14:23:03.462Z,44.19
2023-05-10T14:28:05.350Z,42.57
2023-05-10T14:33:07.006Z,42.35
2023-05-10T14:38:08.711Z,43.30
2023-05-10T14:43:10.301Z,42.97
2023-05-10T14:48:16.318Z,43.01
2023-05-10T14:53:17.994Z,44.47
2023-05-10T14:58:19.531Z,45.21
2023-05-10T15:03:21.248Z,46.75
2023-05-10T15:08:24.848Z,43.57
2023-05-10T15:13:26.427Z,44.69
2023-05-10T15:18:28.033Z,44.58
2023-05-10T15:23:30.847Z,45.29
2023-05-10T15:28:34.226Z,45.09
2023-05-10T15:33:37.997Z,44.80
2023-05-10T15:38:39.613Z,44.46
2023-05-10T15:43:41.614Z,44.13
2023-05-10T15:48:43.600Z,44.56
2023-05-10T15:54:00.528Z,44.91
2023-05-10T15:59:08.749Z,43.06
2023-05-10T16:04:10.443Z,43.78
2023-05-10T16:09:12.132Z,43.35
2023-05-10T16:14:13.838Z,43.67
2023-05-10T16:19:15.987Z,43.11
2023-05-10T16:24:17.730Z,42.20
2023-05-10T16:29:19.285Z,41.88
2023-05-10T16:34:24.241Z,42.73
2023-05-10T16:39:26.014Z,42.56
2023-05-10T16:44:27.773Z,42.06
2023-05-10T16:49:29.377Z,42.37
2023-05-10T16:54:31.300Z,42.21
2023-05-10T16:59:32.894Z,44.27
2023-05-10T17:04:34.978Z,45.19
2023-05-10T17:09:36.676Z,45.26
2023-05-10T17:14:38.489Z,44.57
2023-05-10T17:19:40.278Z,44.56
2023-05-10T17:24:41.877Z,45.24
2023-05-10T17:29:43.554Z,44.61
2023-05-10T17:34:45.152Z,45.27
2023-05-10T17:39:46.828Z,45.15
2023-05-10T17:44:48.537Z,45.60
2023-05-10T17:49:50.343Z,45.46
2023-05-10T17:54:53.316Z,45.71
2023-05-10T17:59:54.962Z,44.06
2023-05-10T18:04:59.133Z,43.91
2023-05-10T18:10:01.673Z,43.58
2023-05-10T18:15:03.668Z,47.22
2023-05-10T18:20:06.210Z,49.29
2023-05-10T18:25:08.238Z,50.36
2023-05-10T18:30:12.293Z,50.45
2023-05-10T18:35:14.190Z,51.52
2023-05-10T18:40:17.533Z,50.88
2023-05-10T18:45:19.521Z,50.11
2023-05-10T18:50:21.512Z,49.30
2023-05-10T18:55:25.831Z,49.29
2023-05-10T19:00:27.485Z,49.85
2023-05-10T19:05:29.976Z,50.63
2023-05-10T19:10:31.535Z,48.92
2023-05-10T19:15:33.172Z,48.04
2023-05-10T19:20:36.204Z,48.57
2023-05-10T19:25:39.245Z,50.76
2023-05-10T19:30:40.992Z,50.94
2023-05-10T19:35:42.747Z,51.35
2023-05-10T19:40:45.098Z,50.31
2023-05-10T19:45:46.746Z,49.96
2023-05-10T19:50:48.364Z,48.96
2023-05-10T19:55:50.045Z,49.26
2023-05-10T20:00:51.700Z,49.33
2023-05-10T20:05:53.403Z,48.90
2023-05-10T20:10:57.721Z,49.81
2023-05-10T20:15:59.892Z,49.20
2023-05-10T20:21:01.581Z,48.90
2023-05-10T20:26:03.674Z,47.94
2023-05-10T20:31:05.368Z,48.51
2023-05-10T20:36:09.557Z,49.09
2023-05-10T20:41:11.191Z,47.35
2023-05-10T20:46:13.082Z,47.78
2023-05-10T20:51:14.810Z,48.21
2023-05-10T20:56:16.621Z,49.47
2023-05-10T21:01:18.345Z,48.02
2023-05-10T21:06:20.024Z,49.63
2023-05-10T21:11:22.445Z,47.64
2023-05-10T21:16:24.098Z,48.63
2023-05-10T21:21:25.924Z,48.05
2023-05-10T21:26:27.486Z,48.54
2023-05-10T21:31:29.127Z,49.31
2023-05-10T21:36:30.859Z,49.80
2023-05-10T21:41:32.429Z,48.93
2023-05-10T21:46:34.236Z,50.39
2023-05-10T21:51:35.866Z,50.24
2023-05-10T21:56:37.622Z,50.05
2023-05-10T22:01:39.670Z,51.02
2023-05-10T22:06:41.392Z,50.61
2023-05-10T22:11:43.036Z,50.42
2023-05-10T22:16:44.864Z,50.30
2023-05-10T22:21:46.601Z,50.00
2023-05-10T22:26:48.241Z,50.42
2023-05-10T22:31:50.166Z,52.18
2023-05-10T22:36:51.831Z,54.80
2023-05-10T22:41:53.451Z,54.49
2023-05-10T22:46:55.142Z,54.13
2023-05-10T22:51:56.753Z,53.29
2023-05-10T22:56:58.356Z,52.97
2023-05-10T23:01:59.974Z,54.30
2023-05-10T23:07:01.590Z,54.13
2023-05-10T23:12:03.410Z,53.77
2023-05-10T23:17:05.067Z,53.75
2023-05-10T23:22:06.704Z,53.89
2023-05-10T23:27:08.330Z,53.36
2023-05-10T23:32:10.101Z,52.40
2023-05-10T23:37:11.714Z,52.35
2023-05-10T23:42:13.417Z,54.20
2023-05-10T23:47:15.053Z,53.67
2023-05-10T23:52:17.611Z,53.35
2023-05-10T23:57:19.406Z,53.96
